createdAt,value
2022-11-24T00:01:23.940Z,97277.91
2022-11-24T00:03:56.600Z,97277.59
2022-11-24T00:06:27.005Z,97279.47
2022-11-24T00:08:56.502Z,97285.97
2022-11-24T00:11:27.393Z,97287.34
2022-11-24T00:13:56.261Z,97293.50
2022-11-24T00:16:26.774Z,97296.19
2022-11-24T00:18:57.502Z,97296.75
2022-11-24T00:21:28.686Z,97300.78
2022-11-24T00:23:57.617Z,97300.09
2022-11-24T00:26:27.571Z,97309.28
2022-11-24T00:28:57.703Z,97307.66
2022-11-24T00:31:27.697Z,97301.94
2022-11-24T00:33:57.639Z,97298.41
2022-11-24T00:36:29.043Z,97312.47
2022-11-24T00:38:59.313Z,97314.66
2022-11-24T00:41:28.465Z,97327.13
2022-11-24T00:43:58.896Z,97325.41
2022-11-24T00:46:28.082Z,97327.56
2022-11-24T00:48:56.959Z,97326.84
2022-11-24T00:51:29.961Z,97336.41
2022-11-24T00:53:58.599Z,97330.81
2022-11-24T00:56:30.486Z,97327.63
2022-11-24T00:58:59.240Z,97331.03
2022-11-24T01:01:29.229Z,97332.34
2022-11-24T01:03:58.315Z,97321.56
2022-11-24T01:06:28.818Z,97323.03
2022-11-24T01:08:58.307Z,97319.28
2022-11-24T01:11:28.751Z,97328.50
2022-11-24T01:13:59.472Z,97328.66
2022-11-24T01:16:30.252Z,97340.31
2022-11-24T01:18:59.076Z,97329.00
2022-11-24T01:21:28.997Z,97336.50
2022-11-24T01:23:57.649Z,97339.69
2022-11-24T01:26:26.095Z,97342.69
2022-11-24T01:28:55.069Z,97338.81
2022-11-24T01:31:24.372Z,97337.69
2022-11-24T01:33:53.371Z,97355.69
2022-11-24T01:36:22.049Z,97346.19
2022-11-24T01:38:52.139Z,97344.91
2022-11-24T01:41:22.116Z,97348.47
2022-11-24T01:43:52.231Z,97350.50
2022-11-24T01:46:24.349Z,97344.63
2022-11-24T01:48:57.656Z,97351.25
2022-11-24T01:51:28.504Z,97350.19
2022-11-24T01:54:00.917Z,97353.91
2022-11-24T01:56:29.996Z,97353.50
2022-11-24T01:59:00.461Z,97351.81
2022-11-24T02:01:31.667Z,97355.00
2022-11-24T02:04:01.145Z,97344.50
2022-11-24T02:06:31.917Z,97346.31
2022-11-24T02:09:04.260Z,97349.50
2022-11-24T02:11:37.512Z,97349.69
2022-11-24T02:14:07.185Z,97356.09
2022-11-24T02:16:36.199Z,97351.47
2022-11-24T02:19:06.088Z,97349.28
2022-11-24T02:21:34.343Z,97347.53
2022-11-24T02:24:09.717Z,97348.59
2022-11-24T02:26:43.125Z,97346.44
2022-11-24T02:29:11.964Z,97347.25
2022-11-24T02:31:42.560Z,97351.09
2022-11-24T02:34:11.009Z,97356.50
2022-11-24T02:36:39.434Z,97353.75
2022-11-24T02:39:11.382Z,97351.84
2022-11-24T02:41:42.499Z,97352.50
2022-11-24T02:44:11.239Z,97354.31
2022-11-24T02:46:39.644Z,97350.28
2022-11-24T02:49:08.373Z,97349.75
2022-11-24T02:51:36.640Z,97356.81
2022-11-24T02:54:05.233Z,97357.88
2022-11-24T02:56:33.742Z,97363.34
2022-11-24T02:59:03.513Z,97361.91
2022-11-24T03:01:31.837Z,97357.97
2022-11-24T03:04:00.368Z,97361.78
2022-11-24T03:06:28.592Z,97361.47
2022-11-24T03:08:57.006Z,97355.75
2022-11-24T03:11:25.335Z,97358.47
2022-11-24T03:13:53.993Z,97356.56
2022-11-24T03:16:23.737Z,97350.66
2022-11-24T03:18:52.342Z,97345.94
2022-11-24T03:21:20.990Z,97346.97
2022-11-24T03:23:49.436Z,97352.47
2022-11-24T03:26:19.476Z,97349.56
2022-11-24T03:28:48.337Z,97360.56
2022-11-24T03:31:16.936Z,97361.63
2022-11-24T03:33:46.839Z,97361.22
2022-11-24T03:36:15.204Z,97358.16
2022-11-24T03:38:43.888Z,97357.38
2022-11-24T03:41:12.223Z,97369.88
2022-11-24T03:43:44.027Z,97367.16
2022-11-24T03:46:13.022Z,97367.13
2022-11-24T03:48:41.587Z,97373.66
2022-11-24T03:51:11.788Z,97377.88
2022-11-24T03:53:40.289Z,97380.75
2022-11-24T03:56:08.889Z,97379.09
2022-11-24T03:58:37.473Z,97378.28
2022-11-24T04:01:05.895Z,97385.34
2022-11-24T04:03:34.291Z,97382.91
2022-11-24T04:06:02.393Z,97385.63
2022-11-24T04:08:32.336Z,97390.38
2022-11-24T04:11:01.178Z,97386.19
2022-11-24T04:13:28.964Z,97384.47
2022-11-24T04:15:57.398Z,97388.06
2022-11-24T04:18:26.023Z,97386.13
2022-11-24T04:20:54.292Z,97383.97
2022-11-24T04:23:22.935Z,97388.31
2022-11-24T04:25:52.442Z,97398.25
2022-11-24T04:28:20.954Z,97396.50
2022-11-24T04:30:49.309Z,97403.31
2022-11-24T04:33:17.734Z,97409.78
2022-11-24T04:35:45.852Z,97407.09
2022-11-24T04:39:23.057Z,97410.09
2022-11-24T04:41:04.378Z,97410.09
2022-11-24T04:43:39.107Z,97407.94
2022-11-24T04:46:11.525Z,97410.06
2022-11-24T04:48:40.040Z,97415.63
2022-11-24T04:51:08.359Z,97418.84
2022-11-24T04:53:36.923Z,97422.66
2022-11-24T04:56:08.247Z,97416.03
2022-11-24T04:58:37.339Z,97412.22
2022-11-24T05:01:09.122Z,97416.78
2022-11-24T05:03:38.184Z,97420.13
2022-11-24T05:06:08.961Z,97422.56
2022-11-24T05:08:38.063Z,97419.59
2022-11-24T05:11:08.589Z,97419.25
2022-11-24T05:13:37.164Z,97430.72
2022-11-24T05:16:06.002Z,97429.63
2022-11-24T05:18:34.742Z,97429.66
2022-11-24T05:21:03.303Z,97428.25
2022-11-24T05:23:31.987Z,97430.38
2022-11-24T05:26:01.216Z,97432.78
2022-11-24T05:28:31.110Z,97440.91
2022-11-24T05:31:01.617Z,97439.03
2022-11-24T05:33:30.378Z,97440.50
2022-11-24T05:36:02.357Z,97442.75
2022-11-24T05:38:31.237Z,97444.88
2022-11-24T05:41:02.231Z,97438.78
2022-11-24T05:43:32.467Z,97446.13
2022-11-24T05:46:01.607Z,97456.84
2022-11-24T05:48:30.364Z,97450.56
2022-11-24T05:50:59.748Z,97458.47
2022-11-24T05:53:28.337Z,97460.94
2022-11-24T05:55:56.581Z,97452.75
2022-11-24T05:58:25.239Z,97456.28
2022-11-24T06:00:54.722Z,97456.75
2022-11-24T06:03:23.844Z,97460.13
2022-11-24T06:05:51.911Z,97465.00
2022-11-24T06:08:20.519Z,97469.31
2022-11-24T06:10:48.705Z,97475.84
2022-11-24T06:13:18.350Z,97475.38
2022-11-24T06:15:46.759Z,97477.25
2022-11-24T06:18:16.565Z,97479.63
2022-11-24T06:21:02.812Z,97481.31
2022-11-24T06:23:33.502Z,97490.03
2022-11-24T06:26:01.984Z,97493.53
2022-11-24T06:28:30.386Z,97497.63
2022-11-24T06:31:02.115Z,97501.41
2022-11-24T06:33:35.476Z,97499.50
2022-11-24T06:36:05.329Z,97505.28
2022-11-24T06:38:33.839Z,97506.34
2022-11-24T06:41:02.505Z,97507.97
2022-11-24T06:43:31.934Z,97508.47
2022-11-24T06:46:00.730Z,97499.84
2022-11-24T06:48:29.811Z,97508.44
2022-11-24T06:51:01.782Z,97508.75
2022-11-24T06:53:31.158Z,97506.28
2022-11-24T06:56:00.115Z,97515.81
2022-11-24T06:58:28.826Z,97512.06
2022-11-24T07:00:57.261Z,97516.66
2022-11-24T07:03:28.083Z,97519.94
2022-11-24T07:06:01.307Z,97520.44
2022-11-24T07:08:29.817Z,97519.13
2022-11-24T07:10:57.938Z,97522.38
2022-11-24T07:13:26.241Z,97521.28
2022-11-24T07:15:54.423Z,97516.91
2022-11-24T07:18:22.860Z,97526.16
2022-11-24T07:20:51.339Z,97536.72
2022-11-24T07:23:21.256Z,97534.50
2022-11-24T07:25:49.680Z,97532.41
2022-11-24T07:28:18.384Z,97530.75
2022-11-24T07:30:46.543Z,97536.47
2022-11-24T07:33:16.345Z,97536.19
2022-11-24T07:35:44.381Z,97542.19
2022-11-24T07:38:12.894Z,97540.56
2022-11-24T07:40:42.402Z,97541.09
2022-11-24T07:43:14.592Z,97538.38
2022-11-24T07:45:45.301Z,97544.63
2022-11-24T07:48:13.866Z,97541.94
2022-11-24T07:50:42.190Z,97545.16
2022-11-24T07:53:10.765Z,97545.47
2022-11-24T07:55:38.901Z,97548.44
2022-11-24T07:58:09.211Z,97552.72
2022-11-24T08:00:37.386Z,97549.28
2022-11-24T08:03:06.080Z,97548.69
2022-11-24T08:05:34.260Z,97562.88
2022-11-24T08:08:02.883Z,97561.22
2022-11-24T08:10:31.013Z,97565.59
2022-11-24T08:13:01.224Z,97563.31
2022-11-24T08:15:30.746Z,97562.22
2022-11-24T08:18:02.453Z,97573.91
2022-11-24T08:20:30.562Z,97578.34
2022-11-24T08:23:00.134Z,97568.81
2022-11-24T08:25:32.212Z,97572.88
2022-11-24T08:28:01.131Z,97578.06
2022-11-24T08:30:31.042Z,97581.22
2022-11-24T08:33:00.694Z,97584.47
2022-11-24T08:35:29.577Z,97588.88
2022-11-24T08:38:03.203Z,97587.31
2022-11-24T08:40:33.845Z,97589.97
2022-11-24T08:43:02.611Z,97596.22
2022-11-24T08:45:35.456Z,97592.88
2022-11-24T08:48:07.963Z,97598.41
2022-11-24T08:50:36.291Z,97601.13
2022-11-24T08:53:04.566Z,97601.41
2022-11-24T08:55:33.007Z,97603.06
2022-11-24T08:58:01.245Z,97609.56
2022-11-24T09:00:29.768Z,97604.41
2022-11-24T09:03:00.098Z,97603.03
2022-11-24T09:05:51.157Z,97605.50
2022-11-24T09:08:16.898Z,97608.78
2022-11-24T09:10:45.372Z,97607.13
2022-11-24T09:13:13.701Z,97606.31
2022-11-24T09:15:42.471Z,97611.19
2022-11-24T09:18:11.913Z,97603.03
2022-11-24T09:20:40.847Z,97597.63
2022-11-24T09:23:09.248Z,97607.94
2022-11-24T09:25:37.700Z,97611.78
2022-11-24T09:28:06.079Z,97606.88
2022-11-24T09:30:35.733Z,97610.13
2022-11-24T09:33:04.021Z,97603.63
2022-11-24T09:35:33.775Z,97609.84
2022-11-24T09:38:01.899Z,97605.22
2022-11-24T09:40:30.480Z,97606.59
2022-11-24T09:43:02.155Z,97607.69
2022-11-24T09:46:04.377Z,97609.31
2022-11-24T09:48:35.696Z,97613.09
2022-11-24T09:51:06.141Z,97616.09
2022-11-24T09:53:38.529Z,97607.94
2022-11-24T09:56:17.637Z,97608.50
2022-11-24T09:58:48.511Z,97615.56
2022-11-24T10:01:19.071Z,97617.75
2022-11-24T10:03:49.117Z,97612.56
2022-11-24T10:06:24.529Z,97615.56
2022-11-24T10:09:09.058Z,97609.31
2022-11-24T10:11:40.929Z,97612.84
2022-11-24T10:14:25.643Z,97602.53
2022-11-24T10:16:58.008Z,97618.78
2022-11-24T10:19:37.432Z,97617.19
2022-11-24T10:22:21.404Z,97611.78
2022-11-24T10:25:09.371Z,97617.19
2022-11-24T10:27:41.758Z,97615.56
2022-11-24T10:30:16.230Z,97619.91
2022-11-24T10:32:48.173Z,97614.72
2022-11-24T10:35:19.724Z,97613.66
2022-11-24T10:37:56.094Z,97612.84
2022-11-24T10:43:23.258Z,97612.31
2022-11-24T10:45:51.463Z,97622.09
2022-11-24T10:48:21.469Z,97614.22
2022-11-24T10:50:49.659Z,97611.75
2022-11-24T10:53:23.575Z,97619.91
2022-11-24T10:55:59.959Z,97618.78
2022-11-24T10:58:34.451Z,97618.28
2022-11-24T11:01:21.699Z,97620.69
2022-11-24T11:03:52.276Z,97618.03
2022-11-24T11:06:23.983Z,97614.19
2022-11-24T11:09:17.681Z,97616.53
2022-11-24T11:11:48.386Z,97622.63
2022-11-24T11:14:30.919Z,97622.28
2022-11-24T11:16:59.508Z,97630.28
2022-11-24T11:19:50.670Z,97618.78
2022-11-24T11:22:25.800Z,97617.16
2022-11-24T11:25:08.337Z,97617.16
2022-11-24T11:27:36.462Z,97616.38
2022-11-24T11:36:12.008Z,97624.53
2022-11-24T11:38:41.101Z,97623.22
2022-11-24T11:41:20.076Z,97628.31
2022-11-24T11:43:53.603Z,97633.47
2022-11-24T11:46:22.629Z,97632.44
2022-11-24T11:48:50.802Z,97636.47
2022-11-24T11:51:39.807Z,97632.88
2022-11-24T11:54:15.702Z,97631.84
2022-11-24T11:56:47.303Z,97634.00
2022-11-24T11:59:36.562Z,97635.88
2022-11-24T12:02:29.735Z,97631.50
2022-11-24T12:05:01.048Z,97628.50
2022-11-24T12:07:42.990Z,97632.56
2022-11-24T12:10:19.286Z,97633.19
2022-11-24T12:13:00.958Z,97635.06
2022-11-24T12:15:31.175Z,97636.59
2022-11-24T12:18:26.793Z,97632.41
2022-11-24T12:21:05.375Z,97634.28
2022-11-24T12:23:42.774Z,97636.25
2022-11-24T12:26:16.704Z,97637.81
2022-11-24T12:28:55.493Z,97632.94
2022-11-24T12:31:29.766Z,97634.56
2022-11-24T12:34:20.450Z,97640.81
2022-11-24T12:37:09.205Z,97638.03
2022-11-24T12:39:45.671Z,97638.31
2022-11-24T12:42:19.843Z,97643.25
2022-11-24T12:45:02.670Z,97637.22
2022-11-24T12:47:39.521Z,97646.47
2022-11-24T12:50:11.566Z,97642.13
2022-11-24T12:52:42.026Z,97647.03
2022-11-24T12:55:16.725Z,97656.56
2022-11-24T12:57:50.773Z,97652.75
2022-11-24T13:00:23.306Z,97658.44
2022-11-24T13:03:17.257Z,97659.19
2022-11-24T13:05:51.512Z,97662.78
2022-11-24T13:08:20.479Z,97660.13
2022-11-24T13:10:57.818Z,97657.69
2022-11-24T13:13:29.157Z,97659.22
2022-11-24T13:16:35.812Z,97655.63
2022-11-24T13:19:14.222Z,97666.00
2022-11-24T13:22:04.021Z,97662.72
2022-11-24T13:24:34.171Z,97658.50
2022-11-24T13:27:42.750Z,97671.44
2022-11-24T13:30:52.242Z,97675.22
2022-11-24T13:33:37.754Z,97671.47
2022-11-24T13:36:33.945Z,97688.34
2022-11-24T13:39:04.715Z,97688.16
2022-11-24T13:42:42.235Z,97690.50
2022-11-24T13:45:00.954Z,97694.69
2022-11-24T13:47:35.252Z,97700.94
2022-11-24T13:50:07.615Z,97699.84
2022-11-24T13:52:47.339Z,97703.34
2022-11-24T13:55:40.361Z,97709.03
2022-11-24T13:58:28.395Z,97710.09
2022-11-24T14:01:14.935Z,97721.56
2022-11-24T14:07:08.372Z,97718.28
2022-11-24T14:09:42.157Z,97721.03
2022-11-24T14:12:15.332Z,97730.56
2022-11-24T14:14:44.439Z,97737.38
2022-11-24T14:17:20.782Z,97743.34
2022-11-24T14:19:50.341Z,97747.66
2022-11-24T14:22:22.793Z,97752.34
2022-11-24T14:24:55.560Z,97756.94
2022-11-24T14:27:29.883Z,97754.19
2022-11-24T14:30:00.088Z,97760.69
2022-11-24T14:32:29.091Z,97765.56
2022-11-24T14:34:57.410Z,97763.91
2022-11-24T14:37:27.460Z,97768.31
2022-11-24T14:39:58.472Z,97771.50
2022-11-24T14:42:30.040Z,97776.13
2022-11-24T14:44:59.396Z,97777.06
2022-11-24T14:47:32.080Z,97774.06
2022-11-24T14:50:10.099Z,97776.53
2022-11-24T14:52:45.167Z,97781.16
2022-11-24T14:55:26.233Z,97778.97
2022-11-24T14:57:54.823Z,97784.88
2022-11-24T15:00:29.026Z,97780.88
2022-11-24T15:03:13.714Z,97784.13
2022-11-24T15:05:52.842Z,97788.22
2022-11-24T15:08:23.602Z,97796.09
2022-11-24T15:10:57.771Z,97797.19
2022-11-24T15:13:26.462Z,97796.03
2022-11-24T15:16:02.020Z,97799.34
2022-11-24T15:18:37.815Z,97800.72
2022-11-24T15:21:06.040Z,97805.25
2022-11-24T15:23:37.557Z,97808.34
2022-11-24T15:26:30.699Z,97806.75
2022-11-24T15:29:01.711Z,97810.13
2022-11-24T15:31:29.996Z,97809.88
2022-11-24T15:33:58.548Z,97812.84
2022-11-24T15:36:26.696Z,97818.84
2022-11-24T15:38:56.672Z,97820.03
2022-11-24T15:41:29.361Z,97823.59
2022-11-24T15:44:00.048Z,97827.09
2022-11-24T15:46:28.692Z,97823.88
2022-11-24T15:48:57.444Z,97820.59
2022-11-24T15:51:26.823Z,97823.88
2022-11-24T15:54:01.116Z,97829.59
2022-11-24T15:56:32.256Z,97829.59
2022-11-24T15:59:00.874Z,97836.63
2022-11-24T16:01:32.676Z,97831.22
2022-11-24T16:04:01.671Z,97839.88
2022-11-24T16:06:29.954Z,97840.44
2022-11-24T16:08:59.659Z,97848.34
2022-11-24T16:11:28.150Z,97849.94
2022-11-24T16:13:56.586Z,97849.41
2022-11-24T16:16:25.720Z,97845.59
2022-11-24T16:18:54.351Z,97851.03
2022-11-24T16:21:23.303Z,97851.03
2022-11-24T16:23:51.942Z,97852.13
2022-11-24T16:26:21.534Z,97848.91
2022-11-24T16:28:49.974Z,97851.28
2022-11-24T16:31:19.213Z,97858.63
2022-11-24T16:33:47.884Z,97851.56
2022-11-24T16:36:16.447Z,97858.66
2022-11-24T16:38:45.047Z,97863.00
2022-11-24T16:41:13.639Z,97867.34
2022-11-24T16:43:43.587Z,97868.75
2022-11-24T16:46:20.519Z,97868.47
2022-11-24T16:48:50.196Z,97870.63
2022-11-24T16:51:19.102Z,97873.38
2022-11-24T16:53:47.831Z,97866.56
2022-11-24T16:56:16.574Z,97872.25
2022-11-24T16:58:46.531Z,97879.38
2022-11-24T17:01:15.079Z,97884.25
2022-11-24T17:03:43.748Z,97879.91
2022-11-24T17:06:15.854Z,97880.22
2022-11-24T17:08:45.544Z,97882.66
2022-11-24T17:11:15.360Z,97882.38
2022-11-24T17:13:44.401Z,97889.72
2022-11-24T17:16:15.224Z,97884.56
2022-11-24T17:18:44.013Z,97889.69
2022-11-24T17:21:14.034Z,97887.00
2022-11-24T17:23:42.957Z,97896.22
2022-11-24T17:26:13.618Z,97901.97
2022-11-24T17:28:42.513Z,97905.75
2022-11-24T17:31:11.492Z,97900.03
2022-11-24T17:33:41.297Z,97905.25
2022-11-24T17:36:10.102Z,97907.13
2022-11-24T17:38:38.539Z,97910.38
2022-11-24T17:41:07.046Z,97917.97
2022-11-24T17:43:35.670Z,97921.25
2022-11-24T17:46:05.626Z,97921.03
2022-11-24T17:48:34.638Z,97923.16
2022-11-24T17:51:06.298Z,97924.56
2022-11-24T17:53:37.050Z,97931.66
2022-11-24T17:56:05.689Z,97934.06
2022-11-24T17:58:41.297Z,97933.00
2022-11-24T18:01:11.410Z,97949.81
2022-11-24T18:03:40.469Z,97943.31
2022-11-24T18:06:11.475Z,97947.44
2022-11-24T18:08:40.074Z,97942.28
2022-11-24T18:11:09.382Z,97947.94
2022-11-24T18:13:56.460Z,97950.63
2022-11-24T18:16:28.358Z,97952.28
2022-11-24T18:19:07.891Z,97948.19
2022-11-24T18:21:38.842Z,97953.41
2022-11-24T18:24:07.891Z,97956.69
2022-11-24T18:26:36.045Z,97963.72
2022-11-24T18:29:05.405Z,97961.03
2022-11-24T18:31:35.680Z,97956.94
2022-11-24T18:34:05.090Z,97972.13
2022-11-24T18:36:33.426Z,97971.31
2022-11-24T18:39:03.479Z,97977.13
2022-11-24T18:41:31.957Z,97975.19
2022-11-24T18:44:02.392Z,97981.72
2022-11-24T18:46:30.818Z,97978.47
2022-11-24T18:49:00.320Z,97974.13
2022-11-24T18:51:28.566Z,97986.91
2022-11-24T18:53:58.316Z,97973.28
2022-11-24T18:56:28.347Z,97978.50
2022-11-24T18:58:57.646Z,97978.50
2022-11-24T19:01:27.100Z,97977.94
2022-11-24T19:03:56.740Z,97979.28
2022-11-24T19:06:28.923Z,97986.38
2022-11-24T19:08:57.608Z,97990.97
2022-11-24T19:11:29.155Z,97997.00
2022-11-24T19:13:58.000Z,97998.06
2022-11-24T19:16:26.660Z,97998.34
2022-11-24T19:18:57.345Z,98005.19
2022-11-24T19:21:25.537Z,98007.56
2022-11-24T19:23:54.164Z,98005.13
2022-11-24T19:26:22.287Z,98010.00
2022-11-24T19:28:52.390Z,98000.28
2022-11-24T19:31:20.791Z,98005.94
2022-11-24T19:33:49.192Z,98010.56
2022-11-24T19:36:19.105Z,98012.25
2022-11-24T19:38:51.059Z,98004.34
2022-11-24T19:41:20.229Z,97998.94
2022-11-24T19:43:49.532Z,98012.22
2022-11-24T19:46:19.903Z,98006.81
2022-11-24T19:48:51.239Z,98017.66
2022-11-24T19:51:21.472Z,98015.75
2022-11-24T19:53:50.028Z,98027.41
2022-11-24T19:56:19.651Z,98026.66
2022-11-24T19:58:49.478Z,98025.28
2022-11-24T20:01:20.590Z,98026.38
2022-11-24T20:03:50.343Z,98025.66
2022-11-24T20:06:18.455Z,98028.72
2022-11-24T20:08:46.961Z,98034.44
2022-11-24T20:11:16.575Z,98032.63
2022-11-24T20:13:46.127Z,98032.91
2022-11-24T20:16:15.934Z,98037.25
2022-11-24T20:18:47.343Z,98038.94
2022-11-24T20:21:19.856Z,98042.22
2022-11-24T20:23:53.938Z,98046.28
2022-11-24T20:26:23.419Z,98048.94
2022-11-24T20:28:52.537Z,98053.50
2022-11-24T20:31:22.344Z,98051.38
2022-11-24T20:33:52.489Z,98056.59
2022-11-24T20:36:23.388Z,98053.31
2022-11-24T20:38:52.820Z,98050.50
2022-11-24T20:41:23.706Z,98047.31
2022-11-24T20:43:52.629Z,98053.16
2022-11-24T20:46:22.154Z,98056.22
2022-11-24T20:48:52.722Z,98053.44
2022-11-24T20:51:22.696Z,98051.59
2022-11-24T20:53:51.514Z,98059.16
2022-11-24T20:56:22.018Z,98067.97
2022-11-24T20:58:51.096Z,98063.97
2022-11-24T21:01:21.293Z,98066.00
2022-11-24T21:03:54.022Z,98071.28
2022-11-24T21:06:22.241Z,98068.06
2022-11-24T21:08:51.138Z,98071.88
2022-11-24T21:11:19.845Z,98070.59
2022-11-24T21:13:49.791Z,98071.41
2022-11-24T21:16:20.308Z,98072.81
2022-11-24T21:18:53.026Z,98073.72
2022-11-24T21:21:22.126Z,98068.75
2022-11-24T21:23:51.081Z,98070.88
2022-11-24T21:26:20.599Z,98074.22
2022-11-24T21:28:49.355Z,98077.97
2022-11-24T21:31:20.018Z,98077.53
2022-11-24T21:33:50.080Z,98079.69
2022-11-24T21:36:20.942Z,98083.50
2022-11-24T21:38:52.998Z,98088.09
2022-11-24T21:41:21.912Z,98086.94
2022-11-24T21:43:50.503Z,98087.56
2022-11-24T21:46:18.757Z,98085.66
2022-11-24T21:48:47.153Z,98089.16
2022-11-24T21:51:16.227Z,98095.81
2022-11-24T21:53:46.949Z,98090.19
2022-11-24T21:56:17.110Z,98091.50
2022-11-24T21:58:47.452Z,98093.06
2022-11-24T22:01:17.605Z,98095.41
2022-11-24T22:03:46.857Z,98091.88
2022-11-24T22:06:15.125Z,98098.78
2022-11-24T22:08:45.029Z,98089.47
2022-11-24T22:11:14.876Z,98099.44
2022-11-24T22:13:44.745Z,98100.16
2022-11-24T22:16:14.615Z,98097.44
2022-11-24T22:18:44.115Z,98103.09
2022-11-24T22:21:14.021Z,98096.06
2022-11-24T22:23:42.775Z,98101.09
2022-11-24T22:26:15.308Z,98101.16
2022-11-24T22:28:44.139Z,98100.91
2022-11-24T22:31:13.905Z,98107.28
2022-11-24T22:33:43.707Z,98114.53
2022-11-24T22:36:12.304Z,98117.91
2022-11-24T22:38:40.976Z,98117.56
2022-11-24T22:41:10.885Z,98115.81
2022-11-24T22:43:41.379Z,98112.06
2022-11-24T22:46:12.120Z,98120.53
2022-11-24T22:48:40.808Z,98115.69
2022-11-24T22:51:10.799Z,98123.47
2022-11-24T22:53:39.449Z,98126.50
2022-11-24T22:56:09.546Z,98125.34
2022-11-24T22:58:38.452Z,98121.94
2022-11-24T23:01:09.107Z,98121.53
2022-11-24T23:03:38.199Z,98122.78
2022-11-24T23:06:09.516Z,98128.91
2022-11-24T23:08:38.567Z,98134.69
2022-11-24T23:11:09.861Z,98131.59
2022-11-24T23:13:38.746Z,98127.38
2022-11-24T23:16:09.915Z,98134.34
2022-11-24T23:18:38.683Z,98134.13
2022-11-24T23:21:09.083Z,98127.53
2022-11-24T23:23:37.591Z,98130.22
2022-11-24T23:26:08.125Z,98129.69
2022-11-24T23:28:36.655Z,98131.88
2022-11-24T23:31:05.938Z,98130.09
2022-11-24T23:33:36.052Z,98130.53
2022-11-24T23:36:05.944Z,98138.81
2022-11-24T23:38:34.474Z,98142.28
2022-11-24T23:41:04.708Z,98133.78
2022-11-24T23:43:33.536Z,98138.72
2022-11-24T23:46:05.218Z,98135.75
2022-11-24T23:48:35.503Z,98137.97
2022-11-24T23:51:07.786Z,98143.06
2022-11-24T23:53:37.107Z,98149.06
2022-11-24T23:56:05.962Z,98147.00
2022-11-24T23:58:34.732Z,98134.84
